KOTM/OTM METAR and TAF weather

Enter ICAO airport designator
Station Type Date Time Source
KOTM METAR 2019/08/23 14:53 UTC NOAA

KOTM 231453Z AUTO 10008KT 9SM CLR 20/15 A3015 RMK AO2 SLP207 T02000150 51005


Station Type Date Time Source
KOTM Decoded METAR 2019/08/23 14:53 UTC NOAA

Station name not available
Aug 23, 2019 - 10:53 AM EDT / 2019.08.23 1453 UTC
Wind: from the E (100 degrees) at 9 MPH (8 KT):0
Visibility: 9 mile(s):0
Sky conditions: clear
Temperature: 68.0 F (20.0 C)
Dew Point: 59.0 F (15.0 C)
Relative Humidity: 72%
Pressure (altimeter): 30.15 in. Hg (1020 hPa)
Pressure tendency: 0.01 inches (0.5 hPa) higher than three hours ago
ob: KOTM 231453Z AUTO 10008KT 9SM CLR 20/15 A3015 RMK AO2 SLP207 T02000150 51005
cycle: 15

Station Type Date Time Source
KOTM TAF 2019/08/23 12:21 UTC NOAA

TAF KOTM 231120Z 2312/2412 09006KT P6SM FEW250

Example: see airport list